sensor_id;sensor_type;location;lat;lon;timestamp;pressure;altitude;pressure_sealevel;temperature;humidity
74310;BME280;62722;51.142;17.052;2023-05-29T00:02:12;100478.56;;;11.71;70.61
74310;BME280;62722;51.142;17.052;2023-05-29T00:04:39;100484.22;;;11.65;70.79
74310;BME280;62722;51.142;17.052;2023-05-29T00:07:07;100484.44;;;11.62;70.66
74310;BME280;62722;51.142;17.052;2023-05-29T00:09:34;100482.16;;;11.70;70.47
74310;BME280;62722;51.142;17.052;2023-05-29T00:12:02;100481.03;;;11.60;70.31
74310;BME280;62722;51.142;17.052;2023-05-29T00:14:31;100482.00;;;11.59;69.77
74310;BME280;62722;51.142;17.052;2023-05-29T00:16:59;100483.38;;;11.52;70.09
74310;BME280;62722;51.142;17.052;2023-05-29T00:19:27;100487.16;;;11.48;70.35
74310;BME280;62722;51.142;17.052;2023-05-29T00:21:56;100475.47;;;11.38;70.18
74310;BME280;62722;51.142;17.052;2023-05-29T00:24:23;100476.31;;;11.39;70.64
74310;BME280;62722;51.142;17.052;2023-05-29T00:26:51;100478.03;;;11.40;69.92
74310;BME280;62722;51.142;17.052;2023-05-29T00:29:18;100475.66;;;11.35;70.04
74310;BME280;62722;51.142;17.052;2023-05-29T00:31:47;100477.59;;;11.33;69.33
74310;BME280;62722;51.142;17.052;2023-05-29T00:34:14;100479.88;;;11.25;69.50
74310;BME280;62722;51.142;17.052;2023-05-29T00:36:43;100471.38;;;11.20;70.19
74310;BME280;62722;51.142;17.052;2023-05-29T00:39:10;100470.44;;;11.21;70.03
74310;BME280;62722;51.142;17.052;2023-05-29T00:41:38;100477.06;;;11.14;70.02
74310;BME280;62722;51.142;17.052;2023-05-29T00:44:05;100468.22;;;11.15;69.72
74310;BME280;62722;51.142;17.052;2023-05-29T00:46:33;100467.09;;;11.05;70.08
74310;BME280;62722;51.142;17.052;2023-05-29T00:49:00;100467.09;;;11.05;70.46
74310;BME280;62722;51.142;17.052;2023-05-29T00:51:29;100469.84;;;11.03;70.55
74310;BME280;62722;51.142;17.052;2023-05-29T00:53:58;100469.38;;;10.97;70.43
74310;BME280;62722;51.142;17.052;2023-05-29T00:56:26;100465.69;;;10.99;70.46
74310;BME280;62722;51.142;17.052;2023-05-29T00:58:53;100466.56;;;11.00;70.48
74310;BME280;62722;51.142;17.052;2023-05-29T01:01:21;100468.09;;;10.90;70.91
74310;BME280;62722;51.142;17.052;2023-05-29T01:03:49;100472.72;;;10.86;71.45
74310;BME280;62722;51.142;17.052;2023-05-29T01:06:19;100463.38;;;10.81;71.27
74310;BME280;62722;51.142;17.052;2023-05-29T01:08:46;100462.16;;;10.72;70.38
74310;BME280;62722;51.142;17.052;2023-05-29T01:11:21;100461.13;;;10.74;70.64
74310;BME280;62722;51.142;17.052;2023-05-29T01:13:53;100466.50;;;10.73;70.36
74310;BME280;62722;51.142;17.052;2023-05-29T01:16:31;100462.94;;;10.74;70.36
74310;BME280;62722;51.142;17.052;2023-05-29T01:19:10;100473.38;;;10.75;70.58
74310;BME280;62722;51.142;17.052;2023-05-29T01:21:56;100469.59;;;10.80;70.63
74310;BME280;62722;51.142;17.052;2023-05-29T01:24:32;100467.44;;;10.72;71.22
74310;BME280;62722;51.142;17.052;2023-05-29T01:27:08;100458.69;;;10.71;71.27
74310;BME280;62722;51.142;17.052;2023-05-29T01:29:39;100466.31;;;10.76;71.75
74310;BME280;62722;51.142;17.052;2023-05-29T01:32:09;100462.81;;;10.75;71.75
74310;BME280;62722;51.142;17.052;2023-05-29T01:34:38;100465.09;;;10.82;71.56
74310;BME280;62722;51.142;17.052;2023-05-29T01:37:06;100463.56;;;10.78;71.90
74310;BME280;62722;51.142;17.052;2023-05-29T01:39:33;100460.84;;;10.65;72.25
74310;BME280;62722;51.142;17.052;2023-05-29T01:42:02;100470.56;;;10.64;72.60
74310;BME280;62722;51.142;17.052;2023-05-29T01:44:31;100466.59;;;10.57;72.47
74310;BME280;62722;51.142;17.052;2023-05-29T01:46:59;100469.44;;;10.54;72.56
74310;BME280;62722;51.142;17.052;2023-05-29T01:49:27;100466.91;;;10.53;72.76
74310;BME280;62722;51.142;17.052;2023-05-29T01:51:56;100455.78;;;10.48;73.03
74310;BME280;62722;51.142;17.052;2023-05-29T01:54:23;100449.25;;;10.53;72.88
74310;BME280;62722;51.142;17.052;2023-05-29T01:56:51;100466.34;;;10.48;72.94
74310;BME280;62722;51.142;17.052;2023-05-29T01:59:19;100456.72;;;10.47;72.88
74310;BME280;62722;51.142;17.052;2023-05-29T02:01:49;100446.84;;;10.36;73.20
74310;BME280;62722;51.142;17.052;2023-05-29T02:04:16;100456.53;;;10.36;73.32
74310;BME280;62722;51.142;17.052;2023-05-29T02:06:44;100449.59;;;10.35;73.46
74310;BME280;62722;51.142;17.052;2023-05-29T02:09:11;100457.56;;;10.33;73.72
74310;BME280;62722;51.142;17.052;2023-05-29T02:11:39;100462.94;;;10.32;74.08
74310;BME280;62722;51.142;17.052;2023-05-29T02:14:11;100460.50;;;10.29;74.12
74310;BME280;62722;51.142;17.052;2023-05-29T02:16:38;100460.50;;;10.29;73.64
74310;BME280;62722;51.142;17.052;2023-05-29T02:19:08;100466.69;;;10.27;73.86
74310;BME280;62722;51.142;17.052;2023-05-29T02:21:38;100460.03;;;10.22;73.63
74310;BME280;62722;51.142;17.052;2023-05-29T02:24:06;100459.09;;;10.23;74.23
74310;BME280;62722;51.142;17.052;2023-05-29T02:26:34;100461.16;;;10.18;74.60
74310;BME280;62722;51.142;17.052;2023-05-29T02:29:02;100469.91;;;10.18;73.94
74310;BME280;62722;51.142;17.052;2023-05-29T02:31:31;100461.16;;;10.18;74.63
74310;BME280;62722;51.142;17.052;2023-05-29T02:33:59;100456.63;;;10.20;74.78
74310;BME280;62722;51.142;17.052;2023-05-29T02:36:27;100461.88;;;10.20;74.97
74310;BME280;62722;51.142;17.052;2023-05-29T02:38:55;100454.31;;;10.14;75.00
74310;BME280;62722;51.142;17.052;2023-05-29T02:41:22;100450.28;;;10.08;74.91
74310;BME280;62722;51.142;17.052;2023-05-29T02:43:49;100459.03;;;10.09;75.23
74310;BME280;62722;51.142;17.052;2023-05-29T02:46:17;100463.16;;;10.13;75.74
74310;BME280;62722;51.142;17.052;2023-05-29T02:48:44;100457.53;;;10.05;75.91
74310;BME280;62722;51.142;17.052;2023-05-29T02:51:11;100459.41;;;10.03;75.54
74310;BME280;62722;51.142;17.052;2023-05-29T02:53:40;100462.50;;;9.95;75.40
74310;BME280;62722;51.142;17.052;2023-05-29T02:56:07;100465.41;;;9.91;75.39
74310;BME280;62722;51.142;17.052;2023-05-29T02:58:35;100450.81;;;9.85;75.08
74310;BME280;62722;51.142;17.052;2023-05-29T03:01:02;100449.38;;;9.79;75.68
74310;BME280;62722;51.142;17.052;2023-05-29T03:03:30;100452.38;;;9.73;75.67
74310;BME280;62722;51.142;17.052;2023-05-29T03:05:58;100453.63;;;9.82;74.94
74310;BME280;62722;51.142;17.052;2023-05-29T03:08:26;100465.03;;;9.83;75.05
74310;BME280;62722;51.142;17.052;2023-05-29T03:10:56;100469.06;;;9.88;74.25
74310;BME280;62722;51.142;17.052;2023-05-29T03:13:23;100464.00;;;9.85;74.46
74310;BME280;62722;51.142;17.052;2023-05-29T03:15:51;100466.88;;;9.81;74.33
74310;BME280;62722;51.142;17.052;2023-05-29T03:18:22;100465.63;;;9.72;74.90
74310;BME280;62722;51.142;17.052;2023-05-29T03:20:49;100466.59;;;9.71;75.32
74310;BME280;62722;51.142;17.052;2023-05-29T03:23:17;100466.19;;;9.63;75.56
74310;BME280;62722;51.142;17.052;2023-05-29T03:25:44;100474.03;;;9.64;75.53
74310;BME280;62722;51.142;17.052;2023-05-29T03:28:13;100475.69;;;9.65;75.65
74310;BME280;62722;51.142;17.052;2023-05-29T03:30:41;100469.41;;;9.68;76.10
74310;BME280;62722;51.142;17.052;2023-05-29T03:33:08;100475.50;;;9.68;76.00
74310;BME280;62722;51.142;17.052;2023-05-29T03:35:35;100479.97;;;9.68;76.21
74310;BME280;62722;51.142;17.052;2023-05-29T03:38:02;100480.63;;;9.71;76.20
74310;BME280;62722;51.142;17.052;2023-05-29T03:40:30;100484.09;;;9.72;76.55
74310;BME280;62722;51.142;17.052;2023-05-29T03:42:57;100479.41;;;9.77;76.12
74310;BME280;62722;51.142;17.052;2023-05-29T03:45:26;100482.81;;;9.79;76.15
74310;BME280;62722;51.142;17.052;2023-05-29T03:47:53;100484.16;;;9.86;76.19
74310;BME280;62722;51.142;17.052;2023-05-29T03:50:21;100489.72;;;9.96;76.35
74310;BME280;62722;51.142;17.052;2023-05-29T03:52:48;100488.53;;;10.01;75.63
74310;BME280;62722;51.142;17.052;2023-05-29T03:55:16;100491.34;;;10.12;76.23
74310;BME280;62722;51.142;17.052;2023-05-29T03:57:43;100499.41;;;10.25;75.28
74310;BME280;62722;51.142;17.052;2023-05-29T04:00:11;100493.66;;;10.33;75.50
74310;BME280;62722;51.142;17.052;2023-05-29T04:02:40;100493.84;;;10.44;75.02
74310;BME280;62722;51.142;17.052;2023-05-29T04:05:08;100493.56;;;10.48;74.99
74310;BME280;62722;51.142;17.052;2023-05-29T04:07:36;100496.75;;;10.53;75.21
74310;BME280;62722;51.142;17.052;2023-05-29T04:10:05;100489.16;;;10.63;74.27
74310;BME280;62722;51.142;17.052;2023-05-29T04:12:33;100492.44;;;10.66;73.54
74310;BME280;62722;51.142;17.052;2023-05-29T04:15:01;100497.91;;;10.63;73.09
74310;BME280;62722;51.142;17.052;2023-05-29T04:17:28;100500.94;;;10.71;73.53
74310;BME280;62722;51.142;17.052;2023-05-29T04:19:57;100502.25;;;10.79;72.67
74310;BME280;62722;51.142;17.052;2023-05-29T04:22:25;100496.09;;;10.78;73.26
74310;BME280;62722;51.142;17.052;2023-05-29T04:24:53;100498.06;;;10.89;73.70
74310;BME280;62722;51.142;17.052;2023-05-29T04:27:20;100504.47;;;10.99;73.11
74310;BME280;62722;51.142;17.052;2023-05-29T04:29:48;100507.38;;;11.08;73.08
74310;BME280;62722;51.142;17.052;2023-05-29T04:32:15;100507.53;;;11.19;73.41
74310;BME280;62722;51.142;17.052;2023-05-29T04:34:43;100513.81;;;11.31;73.05
74310;BME280;62722;51.142;17.052;2023-05-29T04:37:11;100510.59;;;11.40;73.13
74310;BME280;62722;51.142;17.052;2023-05-29T04:39:39;100510.19;;;11.46;72.40
74310;BME280;62722;51.142;17.052;2023-05-29T04:42:06;100521.88;;;11.56;72.31
74310;BME280;62722;51.142;17.052;2023-05-29T04:44:34;100521.47;;;11.62;72.53
74310;BME280;62722;51.142;17.052;2023-05-29T04:47:01;100521.72;;;11.72;70.87
74310;BME280;62722;51.142;17.052;2023-05-29T04:49:30;100507.66;;;11.71;72.17
74310;BME280;62722;51.142;17.052;2023-05-29T04:51:57;100516.13;;;11.77;71.90
74310;BME280;62722;51.142;17.052;2023-05-29T04:54:28;100514.78;;;11.84;71.13
74310;BME280;62722;51.142;17.052;2023-05-29T04:56:55;100513.53;;;11.89;71.57
74310;BME280;62722;51.142;17.052;2023-05-29T04:59:22;100511.31;;;11.96;70.74
74310;BME280;62722;51.142;17.052;2023-05-29T05:01:49;100511.94;;;11.99;70.83
74310;BME280;62722;51.142;17.052;2023-05-29T05:04:17;100521.38;;;12.03;71.38
74310;BME280;62722;51.142;17.052;2023-05-29T05:06:44;100529.66;;;12.11;71.52
74310;BME280;62722;51.142;17.052;2023-05-29T05:09:12;100523.94;;;12.17;71.26
74310;BME280;62722;51.142;17.052;2023-05-29T05:11:40;100526.06;;;12.25;69.36
74310;BME280;62722;51.142;17.052;2023-05-29T05:14:09;100512.63;;;12.28;69.01
74310;BME280;62722;51.142;17.052;2023-05-29T05:16:36;100530.31;;;12.40;67.78
74310;BME280;62722;51.142;17.052;2023-05-29T05:19:03;100524.38;;;12.49;67.99
74310;BME280;62722;51.142;17.052;2023-05-29T05:21:31;100523.41;;;12.50;66.71
74310;BME280;62722;51.142;17.052;2023-05-29T05:23:59;100525.44;;;12.59;66.77
74310;BME280;62722;51.142;17.052;2023-05-29T05:26:27;100526.69;;;12.66;65.78
74310;BME280;62722;51.142;17.052;2023-05-29T05:28:56;100520.13;;;12.72;66.35
74310;BME280;62722;51.142;17.052;2023-05-29T05:31:23;100528.38;;;12.80;66.44
74310;BME280;62722;51.142;17.052;2023-05-29T05:33:51;100532.19;;;12.89;66.26
74310;BME280;62722;51.142;17.052;2023-05-29T05:36:18;100528.38;;;12.93;65.80
74310;BME280;62722;51.142;17.052;2023-05-29T05:38:46;100519.44;;;12.94;67.25
74310;BME280;62722;51.142;17.052;2023-05-29T05:41:13;100530.34;;;13.02;67.76
74310;BME280;62722;51.142;17.052;2023-05-29T05:43:41;100530.88;;;13.07;66.95
74310;BME280;62722;51.142;17.052;2023-05-29T05:46:09;100531.31;;;13.13;65.41
74310;BME280;62722;51.142;17.052;2023-05-29T05:48:37;100517.72;;;13.18;64.08
74310;BME280;62722;51.142;17.052;2023-05-29T05:51:04;100525.59;;;13.43;62.84
74310;BME280;62722;51.142;17.052;2023-05-29T05:53:31;100527.78;;;13.49;62.84
74310;BME280;62722;51.142;17.052;2023-05-29T05:55:59;100522.66;;;13.59;62.58
74310;BME280;62722;51.142;17.052;2023-05-29T05:58:26;100538.06;;;13.78;61.80
74310;BME280;62722;51.142;17.052;2023-05-29T06:00:53;100524.91;;;13.76;61.26
74310;BME280;62722;51.142;17.052;2023-05-29T06:03:22;100527.25;;;13.92;62.30
74310;BME280;62722;51.142;17.052;2023-05-29T06:05:50;100533.28;;;13.94;60.86
74310;BME280;62722;51.142;17.052;2023-05-29T06:08:18;100528.16;;;14.03;61.25
74310;BME280;62722;51.142;17.052;2023-05-29T06:10:46;100526.81;;;14.09;61.76
74310;BME280;62722;51.142;17.052;2023-05-29T06:13:14;100527.81;;;14.19;61.12
74310;BME280;62722;51.142;17.052;2023-05-29T06:15:42;100538.94;;;14.24;61.07
74310;BME280;62722;51.142;17.052;2023-05-29T06:18:10;100534.47;;;14.25;61.11
74310;BME280;62722;51.142;17.052;2023-05-29T06:20:39;100532.72;;;14.36;61.54
74310;BME280;62722;51.142;17.052;2023-05-29T06:23:07;100532.25;;;14.53;60.50
74310;BME280;62722;51.142;17.052;2023-05-29T06:25:34;100539.97;;;14.56;60.52
74310;BME280;62722;51.142;17.052;2023-05-29T06:28:02;100544.94;;;14.61;60.27
74310;BME280;62722;51.142;17.052;2023-05-29T06:30:31;100538.09;;;14.70;57.27
74310;BME280;62722;51.142;17.052;2023-05-29T06:32:59;100532.28;;;14.76;58.00
74310;BME280;62722;51.142;17.052;2023-05-29T06:35:26;100533.47;;;14.83;59.13
74310;BME280;62722;51.142;17.052;2023-05-29T06:37:55;100542.78;;;14.88;59.63
74310;BME280;62722;51.142;17.052;2023-05-29T06:40:22;100551.72;;;14.87;59.58
74310;BME280;62722;51.142;17.052;2023-05-29T06:42:50;100546.66;;;14.84;59.90
74310;BME280;62722;51.142;17.052;2023-05-29T06:45:17;100546.91;;;14.92;60.35
74310;BME280;62722;51.142;17.052;2023-05-29T06:47:45;100548.38;;;14.96;60.22
74310;BME280;62722;51.142;17.052;2023-05-29T06:50:13;100546.16;;;15.13;59.81
74310;BME280;62722;51.142;17.052;2023-05-29T06:52:41;100551.97;;;15.18;59.97
74310;BME280;62722;51.142;17.052;2023-05-29T06:55:10;100547.69;;;15.37;60.02
74310;BME280;62722;51.142;17.052;2023-05-29T06:57:37;100559.31;;;15.36;59.06
74310;BME280;62722;51.142;17.052;2023-05-29T07:00:06;100559.78;;;15.52;59.11
74310;BME280;62722;51.142;17.052;2023-05-29T07:02:35;100541.63;;;15.57;58.45
74310;BME280;62722;51.142;17.052;2023-05-29T07:05:02;100546.63;;;15.83;58.79
74310;BME280;62722;51.142;17.052;2023-05-29T07:07:31;100552.56;;;15.75;58.61
74310;BME280;62722;51.142;17.052;2023-05-29T07:09:58;100560.19;;;15.80;58.33
74310;BME280;62722;51.142;17.052;2023-05-29T07:12:27;100559.56;;;15.87;57.47
74310;BME280;62722;51.142;17.052;2023-05-29T07:14:54;100566.81;;;16.17;57.62
74310;BME280;62722;51.142;17.052;2023-05-29T07:17:22;100561.63;;;16.36;57.51
74310;BME280;62722;51.142;17.052;2023-05-29T07:19:49;100560.88;;;16.34;58.58
74310;BME280;62722;51.142;17.052;2023-05-29T07:22:17;100564.09;;;16.28;58.20
74310;BME280;62722;51.142;17.052;2023-05-29T07:24:45;100549.97;;;16.37;58.16
74310;BME280;62722;51.142;17.052;2023-05-29T07:27:14;100555.19;;;16.39;57.88
74310;BME280;62722;51.142;17.052;2023-05-29T07:29:45;100556.94;;;16.49;57.20
74310;BME280;62722;51.142;17.052;2023-05-29T07:32:15;100548.22;;;16.47;58.23
74310;BME280;62722;51.142;17.052;2023-05-29T07:34:43;100560.50;;;16.60;58.28
74310;BME280;62722;51.142;17.052;2023-05-29T07:37:11;100568.00;;;16.66;56.71
74310;BME280;62722;51.142;17.052;2023-05-29T07:39:38;100559.97;;;16.86;53.77
74310;BME280;62722;51.142;17.052;2023-05-29T07:42:06;100569.19;;;17.13;51.94
74310;BME280;62722;51.142;17.052;2023-05-29T07:44:33;100566.66;;;17.11;55.05
74310;BME280;62722;51.142;17.052;2023-05-29T07:47:02;100556.81;;;17.02;52.66
74310;BME280;62722;51.142;17.052;2023-05-29T07:49:29;100569.06;;;17.14;53.80
74310;BME280;62722;51.142;17.052;2023-05-29T07:51:57;100561.75;;;17.07;54.69
74310;BME280;62722;51.142;17.052;2023-05-29T07:54:24;100562.84;;;17.04;52.03
74310;BME280;62722;51.142;17.052;2023-05-29T07:56:52;100562.59;;;17.07;51.91
74310;BME280;62722;51.142;17.052;2023-05-29T07:59:19;100556.13;;;17.10;51.40
74310;BME280;62722;51.142;17.052;2023-05-29T08:01:47;100561.78;;;17.16;51.04
74310;BME280;62722;51.142;17.052;2023-05-29T08:04:17;100561.63;;;17.58;49.47
74310;BME280;62722;51.142;17.052;2023-05-29T08:06:44;100551.53;;;17.90;48.62
74310;BME280;62722;51.142;17.052;2023-05-29T08:09:11;100557.16;;;17.87;50.02
74310;BME280;62722;51.142;17.052;2023-05-29T08:11:40;100563.91;;;17.91;46.10
74310;BME280;62722;51.142;17.052;2023-05-29T08:14:07;100566.44;;;17.92;41.11
74310;BME280;62722;51.142;17.052;2023-05-29T08:16:35;100568.28;;;17.92;39.95
74310;BME280;62722;51.142;17.052;2023-05-29T08:19:02;100566.16;;;17.86;40.79
74310;BME280;62722;51.142;17.052;2023-05-29T08:21:31;100560.53;;;17.79;40.68
74310;BME280;62722;51.142;17.052;2023-05-29T08:23:59;100570.81;;;18.03;40.93
74310;BME280;62722;51.142;17.052;2023-05-29T08:26:26;100580.22;;;18.36;38.75
74310;BME280;62722;51.142;17.052;2023-05-29T08:28:54;100573.19;;;18.54;38.21
74310;BME280;62722;51.142;17.052;2023-05-29T08:31:21;100562.19;;;18.57;38.22
74310;BME280;62722;51.142;17.052;2023-05-29T08:33:50;100565.13;;;18.44;40.21
74310;BME280;62722;51.142;17.052;2023-05-29T08:36:18;100572.59;;;18.70;37.26
74310;BME280;62722;51.142;17.052;2023-05-29T08:38:48;100571.41;;;18.82;37.72
74310;BME280;62722;51.142;17.052;2023-05-29T08:41:19;100560.66;;;19.01;36.96
74310;BME280;62722;51.142;17.052;2023-05-29T08:43:48;100574.88;;;18.92;37.55
74310;BME280;62722;51.142;17.052;2023-05-29T08:46:18;100560.94;;;18.98;38.35
74310;BME280;62722;51.142;17.052;2023-05-29T08:48:48;100566.75;;;19.21;37.09
74310;BME280;62722;51.142;17.052;2023-05-29T08:51:19;100579.53;;;19.27;37.25
74310;BME280;62722;51.142;17.052;2023-05-29T08:53:49;100573.88;;;19.03;38.34
74310;BME280;62722;51.142;17.052;2023-05-29T08:56:18;100568.38;;;19.04;38.07
74310;BME280;62722;51.142;17.052;2023-05-29T08:58:48;100564.28;;;19.10;38.49
74310;BME280;62722;51.142;17.052;2023-05-29T09:01:17;100568.13;;;18.98;39.17
74310;BME280;62722;51.142;17.052;2023-05-29T09:03:46;100575.91;;;18.91;39.72
74310;BME280;62722;51.142;17.052;2023-05-29T09:06:14;100565.41;;;19.07;38.36
74310;BME280;62722;51.142;17.052;2023-05-29T09:08:43;100557.09;;;19.10;38.49
74310;BME280;62722;51.142;17.052;2023-05-29T09:11:12;100563.81;;;19.14;39.17
74310;BME280;62722;51.142;17.052;2023-05-29T09:13:39;100583.31;;;19.34;37.83
74310;BME280;62722;51.142;17.052;2023-05-29T09:16:07;100581.00;;;19.49;37.49
74310;BME280;62722;51.142;17.052;2023-05-29T09:18:34;100578.19;;;19.40;38.14
74310;BME280;62722;51.142;17.052;2023-05-29T09:21:06;100565.31;;;19.26;40.32
74310;BME280;62722;51.142;17.052;2023-05-29T09:23:35;100570.84;;;19.25;40.01
74310;BME280;62722;51.142;17.052;2023-05-29T09:26:03;100568.41;;;19.31;40.02
74310;BME280;62722;51.142;17.052;2023-05-29T09:28:31;100570.28;;;19.49;39.65
74310;BME280;62722;51.142;17.052;2023-05-29T09:30:59;100587.06;;;19.41;38.86
74310;BME280;62722;51.142;17.052;2023-05-29T09:33:27;100574.69;;;19.13;38.52
74310;BME280;62722;51.142;17.052;2023-05-29T09:35:54;100574.63;;;19.22;38.45
74310;BME280;62722;51.142;17.052;2023-05-29T09:38:22;100572.44;;;19.08;39.72
74310;BME280;62722;51.142;17.052;2023-05-29T09:40:49;100571.03;;;19.04;40.30
74310;BME280;62722;51.142;17.052;2023-05-29T09:43:18;100571.03;;;19.04;40.00
74310;BME280;62722;51.142;17.052;2023-05-29T09:45:49;100567.19;;;19.16;39.69
74310;BME280;62722;51.142;17.052;2023-05-29T09:48:18;100573.13;;;19.37;39.03
74310;BME280;62722;51.142;17.052;2023-05-29T09:50:49;100572.91;;;19.31;39.78
74310;BME280;62722;51.142;17.052;2023-05-29T09:53:17;100566.22;;;19.17;40.57
74310;BME280;62722;51.142;17.052;2023-05-29T09:55:46;100569.72;;;19.55;39.38
74310;BME280;62722;51.142;17.052;2023-05-29T09:58:14;100564.06;;;19.58;40.22
74310;BME280;62722;51.142;17.052;2023-05-29T10:00:43;100571.25;;;19.75;38.89
74310;BME280;62722;51.142;17.052;2023-05-29T10:03:12;100550.59;;;19.85;39.10
74310;BME280;62722;51.142;17.052;2023-05-29T10:05:40;100558.94;;;19.82;40.12
74310;BME280;62722;51.142;17.052;2023-05-29T10:08:11;100559.34;;;19.87;38.86
74310;BME280;62722;51.142;17.052;2023-05-29T10:10:40;100565.00;;;19.84;39.40
74310;BME280;62722;51.142;17.052;2023-05-29T10:13:11;100559.38;;;19.77;39.33
74310;BME280;62722;51.142;17.052;2023-05-29T10:15:41;100550.75;;;19.66;40.23
74310;BME280;62722;51.142;17.052;2023-05-29T10:18:16;100555.00;;;19.59;40.79
74310;BME280;62722;51.142;17.052;2023-05-29T10:20:49;100554.41;;;19.65;38.40
74310;BME280;62722;51.142;17.052;2023-05-29T10:23:20;100544.78;;;19.72;38.84
74310;BME280;62722;51.142;17.052;2023-05-29T10:25:51;100546.75;;;19.70;38.63
74310;BME280;62722;51.142;17.052;2023-05-29T10:28:19;100552.38;;;19.76;39.78
74310;BME280;62722;51.142;17.052;2023-05-29T10:30:53;100554.63;;;20.07;39.08
74310;BME280;62722;51.142;17.052;2023-05-29T10:33:35;100551.28;;;20.05;39.08
74310;BME280;62722;51.142;17.052;2023-05-29T10:36:10;100543.69;;;20.00;38.70
74310;BME280;62722;51.142;17.052;2023-05-29T10:38:41;100535.09;;;20.14;38.10
74310;BME280;62722;51.142;17.052;2023-05-29T10:41:31;100541.63;;;20.12;38.96
74310;BME280;62722;51.142;17.052;2023-05-29T10:44:39;100546.84;;;20.13;38.27
74310;BME280;62722;51.142;17.052;2023-05-29T10:47:09;100539.94;;;20.11;38.14
74310;BME280;62722;51.142;17.052;2023-05-29T10:49:39;100554.25;;;20.19;36.99
74310;BME280;62722;51.142;17.052;2023-05-29T10:52:18;100545.16;;;20.12;36.70
74310;BME280;62722;51.142;17.052;2023-05-29T10:54:52;100534.44;;;20.30;37.60
74310;BME280;62722;51.142;17.052;2023-05-29T10:57:23;100541.91;;;20.26;36.24
74310;BME280;62722;51.142;17.052;2023-05-29T11:00:03;100536.50;;;20.36;36.92
74310;BME280;62722;51.142;17.052;2023-05-29T11:02:36;100538.13;;;20.55;36.57
74310;BME280;62722;51.142;17.052;2023-05-29T11:05:18;100541.75;;;20.46;36.96
74310;BME280;62722;51.142;17.052;2023-05-29T11:07:54;100538.75;;;20.49;35.34
74310;BME280;62722;51.142;17.052;2023-05-29T11:10:42;100521.94;;;20.38;37.60
74310;BME280;62722;51.142;17.052;2023-05-29T11:13:23;100526.97;;;20.42;37.66
74310;BME280;62722;51.142;17.052;2023-05-29T11:16:11;100525.34;;;20.49;37.39
74310;BME280;62722;51.142;17.052;2023-05-29T11:18:41;100529.28;;;20.62;37.14
74310;BME280;62722;51.142;17.052;2023-05-29T11:21:22;100538.44;;;20.77;36.31
74310;BME280;62722;51.142;17.052;2023-05-29T11:23:52;100522.53;;;20.50;35.60
74310;BME280;62722;51.142;17.052;2023-05-29T11:26:22;100522.78;;;20.39;36.78
74310;BME280;62722;51.142;17.052;2023-05-29T11:28:50;100525.94;;;20.34;37.50
74310;BME280;62722;51.142;17.052;2023-05-29T11:31:17;100527.81;;;20.42;38.57
74310;BME280;62722;51.142;17.052;2023-05-29T11:33:52;100529.81;;;20.66;37.18
74310;BME280;62722;51.142;17.052;2023-05-29T11:36:25;100536.88;;;20.67;36.88
74310;BME280;62722;51.142;17.052;2023-05-29T11:38:53;100542.44;;;20.73;37.03
74310;BME280;62722;51.142;17.052;2023-05-29T11:41:20;100534.56;;;20.72;35.96
74310;BME280;62722;51.142;17.052;2023-05-29T11:43:57;100530.88;;;20.73;35.78
74310;BME280;62722;51.142;17.052;2023-05-29T11:46:25;100528.66;;;20.68;35.26
74310;BME280;62722;51.142;17.052;2023-05-29T11:48:54;100531.16;;;20.62;35.83
74310;BME280;62722;51.142;17.052;2023-05-29T11:51:21;100532.50;;;20.66;36.17
74310;BME280;62722;51.142;17.052;2023-05-29T11:53:50;100525.63;;;20.63;35.43
74310;BME280;62722;51.142;17.052;2023-05-29T11:56:23;100525.78;;;20.62;36.24
74310;BME280;62722;51.142;17.052;2023-05-29T11:58:51;100519.72;;;20.60;35.67
74310;BME280;62722;51.142;17.052;2023-05-29T12:01:21;100514.38;;;20.60;37.00
74310;BME280;62722;51.142;17.052;2023-05-29T12:03:49;100510.75;;;20.77;36.60
74310;BME280;62722;51.142;17.052;2023-05-29T12:06:30;100507.41;;;21.09;36.94
74310;BME280;62722;51.142;17.052;2023-05-29T12:09:01;100517.69;;;21.13;37.70
74310;BME280;62722;51.142;17.052;2023-05-29T12:11:30;100497.03;;;21.14;35.62
74310;BME280;62722;51.142;17.052;2023-05-29T12:13:58;100517.72;;;21.29;36.29
74310;BME280;62722;51.142;17.052;2023-05-29T12:16:27;100504.66;;;21.34;35.27
74310;BME280;62722;51.142;17.052;2023-05-29T12:18:55;100506.34;;;21.44;36.87
74310;BME280;62722;51.142;17.052;2023-05-29T12:21:22;100501.28;;;21.32;34.81
74310;BME280;62722;51.142;17.052;2023-05-29T12:23:52;100506.66;;;21.32;35.12
74310;BME280;62722;51.142;17.052;2023-05-29T12:26:23;100500.47;;;21.32;34.67
74310;BME280;62722;51.142;17.052;2023-05-29T12:28:52;100492.94;;;21.35;35.16
74310;BME280;62722;51.142;17.052;2023-05-29T12:31:26;100490.09;;;21.45;34.35
74310;BME280;62722;51.142;17.052;2023-05-29T12:34:00;100491.09;;;21.44;34.17
74310;BME280;62722;51.142;17.052;2023-05-29T12:36:28;100491.41;;;21.41;34.42
74310;BME280;62722;51.142;17.052;2023-05-29T12:38:58;100481.84;;;21.39;34.25
74310;BME280;62722;51.142;17.052;2023-05-29T12:41:28;100480.53;;;21.43;34.49
74310;BME280;62722;51.142;17.052;2023-05-29T12:43:57;100476.34;;;21.56;34.19
74310;BME280;62722;51.142;17.052;2023-05-29T12:46:25;100478.88;;;21.82;33.09
74310;BME280;62722;51.142;17.052;2023-05-29T12:48:54;100486.81;;;21.92;33.83
74310;BME280;62722;51.142;17.052;2023-05-29T12:51:25;100486.81;;;22.00;34.60